createdAt,value
2019-01-26T00:02:41.482Z,99406.20
2019-01-26T00:07:46.690Z,99396.47
2019-01-26T00:12:52.234Z,99380.83
2019-01-26T00:17:58.224Z,99362.59
2019-01-26T00:23:07.480Z,99348.12
2019-01-26T00:28:16.612Z,99331.95
2019-01-26T00:33:22.350Z,99316.66
2019-01-26T00:38:27.668Z,99296.18
2019-01-26T00:43:32.815Z,99285.89
2019-01-26T00:48:38.046Z,99280.88
2019-01-26T00:53:43.276Z,99277.64
2019-01-26T00:58:53.865Z,99262.52
2019-01-26T01:04:00.437Z,99261.64
2019-01-26T01:09:09.135Z,99253.71
2019-01-26T01:14:14.332Z,99249.08
2019-01-26T01:19:21.978Z,99233.76
2019-01-26T01:24:27.088Z,99221.73
2019-01-26T01:29:32.348Z,99224.38
2019-01-26T01:34:39.016Z,99239.50
2019-01-26T01:39:44.407Z,99214.52
2019-01-26T01:44:49.571Z,99213.78
2019-01-26T01:49:54.769Z,99202.00
2019-01-26T01:55:00.005Z,99199.59
2019-01-26T02:00:08.623Z,99200.94
2019-01-26T02:05:14.483Z,99195.38
2019-01-26T02:10:20.849Z,99180.91
2019-01-26T02:15:26.499Z,99178.50
2019-01-26T02:20:31.695Z,99179.16
2019-01-26T02:25:36.911Z,99167.99
2019-01-26T02:30:41.966Z,99162.66
2019-01-26T02:35:47.143Z,99142.81
2019-01-26T02:40:52.496Z,99142.28
2019-01-26T02:45:57.965Z,99129.00
2019-01-26T02:51:03.088Z,99106.91
2019-01-26T02:56:08.348Z,99109.48
2019-01-26T03:01:13.817Z,99104.90
2019-01-26T03:06:19.074Z,99094.92
2019-01-26T03:11:24.569Z,99099.64
2019-01-26T03:16:29.820Z,99089.98
2019-01-26T03:21:35.610Z,99080.86
2019-01-26T03:26:40.848Z,99065.03
2019-01-26T03:31:45.962Z,99057.30
2019-01-26T03:36:51.228Z,99063.86
2019-01-26T03:41:56.535Z,99058.33
2019-01-26T03:47:01.892Z,99066.66
2019-01-26T03:52:07.156Z,99050.08
2019-01-26T03:57:12.319Z,99036.25
2019-01-26T04:02:17.996Z,99049.27
2019-01-26T04:07:28.423Z,99051.13
2019-01-26T04:12:33.818Z,99057.70
2019-01-26T04:17:44.481Z,99050.21
2019-01-26T04:22:49.950Z,99041.08
2019-01-26T04:28:03.463Z,99036.91
2019-01-26T04:33:08.690Z,99041.73
2019-01-26T04:38:13.873Z,99035.52
2019-01-26T04:43:33.017Z,99034.80
2019-01-26T04:48:39.565Z,99029.89
2019-01-26T04:53:45.281Z,99030.23
2019-01-26T04:58:50.597Z,99032.12
2019-01-26T05:03:59.974Z,99036.81
2019-01-26T05:09:20.980Z,99030.48
2019-01-26T05:14:32.529Z,99029.01
2019-01-26T05:19:37.759Z,99026.98
2019-01-26T05:24:46.289Z,99031.48
2019-01-26T05:29:55.161Z,99036.56
2019-01-26T05:35:09.474Z,99036.79
2019-01-26T05:40:20.543Z,99038.31
2019-01-26T05:45:34.247Z,99040.26
2019-01-26T05:50:39.781Z,99035.59
2019-01-26T05:55:54.593Z,99044.48
2019-01-26T06:01:00.759Z,99038.23
2019-01-26T06:06:14.642Z,99044.78
2019-01-26T06:11:23.482Z,99043.08
2019-01-26T06:16:56.377Z,99045.69
2019-01-26T06:22:03.549Z,99044.08
2019-01-26T06:27:25.732Z,99042.24
2019-01-26T06:32:31.680Z,99032.85
2019-01-26T06:37:37.331Z,99028.38
2019-01-26T06:42:42.813Z,99033.03
2019-01-26T06:48:10.597Z,99032.55
2019-01-26T06:53:19.709Z,99032.59
2019-01-26T06:58:25.103Z,99020.56
2019-01-26T07:03:43.591Z,99026.27
2019-01-26T07:08:49.283Z,99029.16
2019-01-26T07:14:10.255Z,99027.83
2019-01-26T07:19:18.592Z,99024.76
2019-01-26T07:24:33.807Z,99026.36
2019-01-26T07:29:39.397Z,99018.27
2019-01-26T07:34:51.549Z,99024.14
2019-01-26T07:39:56.740Z,99022.07
2019-01-26T07:45:01.834Z,99028.40
2019-01-26T07:50:10.253Z,99026.40
2019-01-26T07:55:18.386Z,99016.48
2019-01-26T08:00:25.618Z,99019.86
2019-01-26T08:05:32.633Z,99021.70
2019-01-26T08:10:37.912Z,99017.86
2019-01-26T08:15:43.989Z,99013.94
2019-01-26T08:20:57.578Z,99007.18
2019-01-26T08:26:25.430Z,99010.39
2019-01-26T08:32:21.764Z,99009.66
2019-01-26T08:37:40.376Z,98998.96
2019-01-26T08:42:47.478Z,98997.41
2019-01-26T08:48:05.976Z,98993.16
2019-01-26T08:53:12.232Z,98987.69
2019-01-26T08:58:17.975Z,98990.06
2019-01-26T09:03:32.242Z,98981.70
2019-01-26T09:08:40.596Z,98973.61
2019-01-26T09:13:47.136Z,98974.19
2019-01-26T09:19:05.024Z,98972.64
2019-01-26T09:24:10.256Z,98968.43
2019-01-26T09:29:16.410Z,98975.23
2019-01-26T09:34:27.373Z,98974.67
2019-01-26T09:39:33.303Z,98970.50
2019-01-26T09:44:40.858Z,98974.47
2019-01-26T09:49:46.107Z,98976.59
2019-01-26T09:54:55.734Z,98975.58
2019-01-26T10:00:01.108Z,98965.33
2019-01-26T10:05:06.962Z,98960.36
2019-01-26T10:10:12.518Z,98959.64
2019-01-26T10:15:17.774Z,98955.69
2019-01-26T10:20:25.230Z,98951.52
2019-01-26T10:25:30.900Z,98943.68
2019-01-26T10:30:41.308Z,98941.82
2019-01-26T10:35:54.178Z,98933.97
2019-01-26T10:41:16.808Z,98920.38
2019-01-26T10:46:22.092Z,98917.48
2019-01-26T10:51:27.447Z,98911.47
2019-01-26T10:56:33.902Z,98902.07
2019-01-26T11:01:40.192Z,98903.11
2019-01-26T11:06:54.926Z,98901.79
2019-01-26T11:12:00.288Z,98888.16
2019-01-26T11:17:06.362Z,98888.71
2019-01-26T11:22:11.502Z,98877.20
2019-01-26T11:27:17.085Z,98872.75
2019-01-26T11:32:23.076Z,98869.35
2019-01-26T11:37:28.812Z,98864.35
2019-01-26T11:42:34.488Z,98866.45
2019-01-26T11:48:04.301Z,98849.17
2019-01-26T11:53:10.056Z,98846.83
2019-01-26T11:58:18.552Z,98838.97
2019-01-26T12:03:58.335Z,98834.50
2019-01-26T12:09:10.486Z,98831.88
2019-01-26T12:14:16.332Z,98819.55
2019-01-26T12:19:22.463Z,98811.16
2019-01-26T12:24:33.454Z,98808.27
2019-01-26T12:29:46.652Z,98804.58
2019-01-26T12:34:52.318Z,98803.15
2019-01-26T12:39:57.516Z,98800.23
2019-01-26T12:45:21.783Z,98801.73
2019-01-26T12:50:31.868Z,98809.55
2019-01-26T12:55:49.414Z,98800.86
2019-01-26T13:01:26.609Z,98799.80
2019-01-26T13:06:35.563Z,98805.27
2019-01-26T13:11:46.783Z,98790.30
2019-01-26T13:16:59.516Z,98790.56
2019-01-26T13:22:13.258Z,98796.34
2019-01-26T13:27:27.922Z,98790.81
2019-01-26T13:32:34.452Z,98788.41
2019-01-26T13:37:44.186Z,98791.31
2019-01-26T13:42:49.306Z,98792.03
2019-01-26T13:47:54.982Z,98789.11
2019-01-26T13:53:04.016Z,98790.94
2019-01-26T13:58:11.519Z,98795.61
2019-01-26T14:03:17.868Z,98797.98
2019-01-26T14:08:23.152Z,98789.27
2019-01-26T14:13:28.834Z,98800.05
2019-01-26T14:19:01.364Z,98797.16
2019-01-26T14:24:07.785Z,98799.71
2019-01-26T14:29:12.943Z,98794.49
2019-01-26T14:34:18.605Z,98792.50
2019-01-26T14:39:39.951Z,98795.91
2019-01-26T14:44:51.178Z,98793.30
2019-01-26T14:50:03.232Z,98794.44
2019-01-26T14:55:22.169Z,98799.44
2019-01-26T15:00:33.399Z,98796.55
2019-01-26T15:05:38.755Z,98802.34
2019-01-26T15:10:44.262Z,98799.39
2019-01-26T15:15:49.858Z,98805.16
2019-01-26T15:26:51.742Z,98805.64
2019-01-26T15:32:14.382Z,98802.75
2019-01-26T15:37:30.759Z,98801.21
2019-01-26T15:42:37.660Z,98800.65
2019-01-26T15:47:45.556Z,98810.15
2019-01-26T15:52:53.215Z,98808.00
2019-01-26T15:58:09.608Z,98810.59
2019-01-26T16:03:49.854Z,98802.48
2019-01-26T16:09:00.761Z,98808.23
2019-01-26T16:14:07.992Z,98807.22
2019-01-26T16:19:13.351Z,98815.14
2019-01-26T16:24:19.134Z,98808.23
2019-01-26T16:29:25.105Z,98806.86
2019-01-26T16:34:30.914Z,98808.67
2019-01-26T16:39:37.396Z,98799.71
2019-01-26T16:44:43.143Z,98803.39
2019-01-26T16:49:49.142Z,98797.34
2019-01-26T16:54:54.482Z,98798.09
2019-01-26T17:00:04.538Z,98800.46
2019-01-26T17:05:27.610Z,98799.14
2019-01-26T17:10:40.219Z,98788.30
2019-01-26T17:15:54.631Z,98794.63
2019-01-26T17:21:01.825Z,98789.05
2019-01-26T17:26:07.445Z,98785.88
2019-01-26T17:31:14.690Z,98775.11
2019-01-26T17:36:34.883Z,98786.96
2019-01-26T17:41:40.939Z,98789.57
2019-01-26T17:46:46.546Z,98775.31
2019-01-26T17:51:52.306Z,98788.16
2019-01-26T17:57:01.188Z,98776.04
2019-01-26T18:02:06.865Z,98775.58
2019-01-26T18:07:12.082Z,98774.66
2019-01-26T18:12:18.463Z,98769.41
2019-01-26T18:17:25.998Z,98761.54
2019-01-26T18:22:33.525Z,98764.88
2019-01-26T18:27:39.142Z,98754.33
2019-01-26T18:32:44.549Z,98756.77
2019-01-26T18:37:55.715Z,98752.27
2019-01-26T18:43:01.405Z,98748.06
2019-01-26T18:48:07.366Z,98742.52
2019-01-26T18:53:13.432Z,98735.12
2019-01-26T18:58:22.298Z,98735.81
2019-01-26T19:04:24.176Z,98717.08
2019-01-26T19:09:29.775Z,98713.14
2019-01-26T19:14:40.603Z,98708.91
2019-01-26T19:19:46.175Z,98705.47
2019-01-26T19:24:55.985Z,98713.28
2019-01-26T19:30:01.800Z,98705.13
2019-01-26T19:35:09.569Z,98697.78
2019-01-26T19:40:37.489Z,98693.41
2019-01-26T19:45:45.836Z,98692.41
2019-01-26T19:50:53.409Z,98688.09
2019-01-26T19:56:16.016Z,98692.80
2019-01-26T20:01:25.316Z,98682.83
2019-01-26T20:06:30.884Z,98685.83
2019-01-26T20:11:43.975Z,98681.12
2019-01-26T20:17:07.378Z,98678.91
2019-01-26T20:22:19.075Z,98664.19
2019-01-26T20:27:32.868Z,98668.59
2019-01-26T20:32:39.099Z,98659.16
2019-01-26T20:37:59.545Z,98653.19
2019-01-26T20:43:22.247Z,98646.33
2019-01-26T20:48:57.557Z,98648.16
2019-01-26T20:54:20.130Z,98638.30
2019-01-26T20:59:28.288Z,98637.06
2019-01-26T21:04:36.903Z,98630.47
2019-01-26T21:09:42.974Z,98624.46
2019-01-26T21:14:50.316Z,98618.97
2019-01-26T21:20:02.310Z,98609.26
2019-01-26T21:25:10.329Z,98599.09
2019-01-26T21:30:21.144Z,98593.28
2019-01-26T21:35:26.700Z,98592.80
2019-01-26T21:40:35.996Z,98595.14
2019-01-26T21:45:41.350Z,98582.80
2019-01-26T21:50:51.921Z,98573.34
2019-01-26T21:56:05.344Z,98561.52
2019-01-26T22:01:10.731Z,98570.46
2019-01-26T22:06:27.709Z,98569.69
2019-01-26T22:11:33.407Z,98573.86
2019-01-26T22:16:38.553Z,98579.95
2019-01-26T22:21:53.161Z,98582.03
2019-01-26T22:27:06.919Z,98571.55
2019-01-26T22:32:15.015Z,98561.84
2019-01-26T22:37:20.584Z,98552.37
2019-01-26T22:42:26.710Z,98557.12
2019-01-26T22:47:34.778Z,98553.75
2019-01-26T22:52:40.698Z,98539.44
2019-01-26T22:58:13.103Z,98546.34
2019-01-26T23:04:33.092Z,98537.70
2019-01-26T23:08:44.500Z,98531.64
2019-01-26T23:14:18.162Z,98532.67
2019-01-26T23:25:57.542Z,98508.42
2019-01-26T23:31:20.388Z,98500.58
2019-01-26T23:36:26.972Z,98497.38
2019-01-26T23:41:32.035Z,98486.64
2019-01-26T23:46:37.592Z,98478.31
2019-01-26T23:51:43.286Z,98468.59
2019-01-26T23:56:59.211Z,98461.80
